Time;durP1;ratioP1;P1;durP2;ratioP2;P2;SDS_P1;SDS_P2;PMS_P1;PMS_P2;Temp;Humidity;BMP_temperature;BMP_pressure;BME280_temperature;BME280_humidity;BME280_pressure;Samples;Min_cycle;Max_cycle;Signal;HPM_P1;HPM_P2
2021/10/13 00:01:53;;;;;;;;;;;;;;;;;;5112569;28;20409;-72
2021/10/13 00:04:20;;;;;;;;;;;;;;;;;;5113682;28;19939;-70
2021/10/13 00:06:46;;;;;;;;;;;;;;;;;;5116934;28;19924;-72
2021/10/13 00:09:12;;;;;;;;;;;;;;;;;;5116295;28;20411;-72
2021/10/13 00:11:38;;;;;;;;;;;;;;;;;;5116802;28;19923;-72
2021/10/13 00:14:05;;;;;;;;;;;;;;;;;;5116166;28;20397;-71
2021/10/13 00:16:32;;;;;;;;;;;;;;;;;;5116658;28;19931;-71
2021/10/13 00:18:58;;;;;;;;;;;;;;;;;;5116168;28;19924;-71
2021/10/13 00:21:24;;;;;;;;;;;;;;;;;;5116323;28;20022;-71
2021/10/13 00:23:51;;;;;;;;;;;;;;;;;;5116491;28;19939;-71
2021/10/13 00:26:17;;;;;;;;;;;;;;;;;;5115836;28;20285;-71
2021/10/13 00:28:43;;;;;;;;;;;;;;;;;;5116149;28;19930;-71
2021/10/13 00:31:10;;;;;;;;;;;;;;;;;;5116188;28;19934;-71
2021/10/13 00:33:36;;;;;;;;;;;;;;;;;;5115935;28;19924;-70
2021/10/13 00:36:02;;;;;;;;;;;;;;;;;;5115979;28;19997;-71
2021/10/13 00:38:29;;;;;;;;;;;;;;;;;;5116145;28;19954;-71
2021/10/13 00:40:55;;;;;;;;;;;;;;;;;;5115897;28;19923;-71
2021/10/13 00:43:21;;;;;;;;;;;;;;;;;;5115542;28;19924;-71
2021/10/13 00:45:49;;;;;;;;;;;;;;;;;;5116061;28;20286;-71
2021/10/13 00:48:15;;;;;;;;;;;;;;;;;;5115556;28;20020;-71
2021/10/13 00:50:42;;;;;;;;;;;;;;;;;;5116013;28;19950;-71
2021/10/13 00:53:08;;;;;;;;;;;;;;;;;;5115634;28;20289;-71
2021/10/13 00:55:34;;;;;;;;;;;;;;;;;;5115649;28;19924;-71
2021/10/13 00:58:00;;;;;;;;;;;;;;;;;;5115107;28;19935;-71
2021/10/13 01:00:27;;;;;;;;;;;;;;;;;;5115574;28;19924;-71
2021/10/13 01:02:53;;;;;;;;;;;;;;;;;;5115804;28;19924;-71
2021/10/13 01:05:19;;;;;;;;;;;;;;;;;;5115198;28;20405;-71
2021/10/13 01:07:46;;;;;;;;;;;;;;;;;;5115228;28;19923;-71
2021/10/13 01:10:12;;;;;;;;;;;;;;;;;;5115438;28;19924;-71
2021/10/13 01:12:38;;;;;;;;;;;;;;;;;;5115358;28;19931;-71
2021/10/13 01:15:04;;;;;;;;;;;;;;;;;;5114468;28;19930;-71
2021/10/13 01:17:32;;;;;;;;;;;;;;;;;;5114834;28;19934;-72
2021/10/13 01:19:58;;;;;;;;;;;;;;;;;;5115385;28;19931;-72
2021/10/13 01:22:25;;;;;;;;;;;;;;;;;;5115435;28;19946;-71
2021/10/13 01:24:51;;;;;;;;;;;;;;;;;;5115084;28;19935;-71
2021/10/13 01:27:17;;;;;;;;;;;;;;;;;;5114956;28;19991;-71
2021/10/13 01:29:44;;;;;;;;;;;;;;;;;;5114988;28;20286;-71
2021/10/13 01:32:10;;;;;;;;;;;;;;;;;;5114606;28;19924;-71
2021/10/13 01:34:36;;;;;;;;;;;;;;;;;;5115248;28;19931;-71
2021/10/13 01:37:02;;;;;;;;;;;;;;;;;;5114529;28;19924;-71
2021/10/13 01:39:29;;;;;;;;;;;;;;;;;;5114921;28;19930;-71
2021/10/13 01:41:55;;;;;;;;;;;;;;;;;;5114978;28;19946;-72
2021/10/13 01:44:21;;;;;;;;;;;;;;;;;;5114484;28;19928;-71
2021/10/13 01:46:48;;;;;;;;;;;;;;;;;;5114954;28;19923;-71
2021/10/13 01:49:14;;;;;;;;;;;;;;;;;;5114390;28;20267;-71
2021/10/13 01:51:40;;;;;;;;;;;;;;;;;;5114430;28;20369;-71
2021/10/13 01:54:07;;;;;;;;;;;;;;;;;;5114477;28;19924;-71
2021/10/13 01:56:33;;;;;;;;;;;;;;;;;;5114556;28;19924;-71
2021/10/13 01:58:59;;;;;;;;;;;;;;;;;;5114416;28;19924;-71
2021/10/13 02:01:26;;;;;;;;;;;;;;;;;;5114565;28;19924;-71
2021/10/13 02:03:52;;;;;;;;;;;;;;;;;;5114476;28;19934;-71
2021/10/13 02:06:18;;;;;;;;;;;;;;;;;;5114047;28;19931;-70
2021/10/13 02:08:45;;;;;;;;;;;;;;;;;;5114244;28;19937;-70
2021/10/13 02:11:11;;;;;;;;;;;;;;;;;;5114201;28;19923;-70
2021/10/13 02:13:37;;;;;;;;;;;;;;;;;;5113981;28;19924;-70
2021/10/13 02:16:03;;;;;;;;;;;;;;;;;;5114130;28;19923;-70
2021/10/13 02:18:30;;;;;;;;;;;;;;;;;;5113935;28;19924;-71
2021/10/13 02:20:56;;;;;;;;;;;;;;;;;;5114173;28;19923;-72
2021/10/13 02:23:22;;;;;;;;;;;;;;;;;;5113679;28;20040;-71
2021/10/13 02:25:49;;;;;;;;;;;;;;;;;;5114087;28;19924;-71
2021/10/13 02:28:15;;;;;;;;;;;;;;;;;;5113367;28;19924;-72
2021/10/13 02:30:41;;;;;;;;;;;;;;;;;;5114137;28;19931;-72
2021/10/13 02:33:08;;;;;;;;;;;;;;;;;;5113435;28;20373;-71
2021/10/13 02:35:34;;;;;;;;;;;;;;;;;;5113717;28;19924;-71
2021/10/13 02:38:00;;;;;;;;;;;;;;;;;;5113513;28;19927;-71
2021/10/13 02:40:26;;;;;;;;;;;;;;;;;;5113614;28;19997;-71
2021/10/13 02:42:53;;;;;;;;;;;;;;;;;;5113824;28;19927;-72
2021/10/13 02:45:19;;;;;;;;;;;;;;;;;;5113487;28;19924;-71
2021/10/13 02:47:45;;;;;;;;;;;;;;;;;;5113453;28;19931;-71
2021/10/13 02:50:12;;;;;;;;;;;;;;;;;;5113458;28;19924;-71
2021/10/13 02:52:38;;;;;;;;;;;;;;;;;;5113324;28;20348;-71
2021/10/13 02:55:04;;;;;;;;;;;;;;;;;;5113073;28;19938;-71
2021/10/13 02:57:31;;;;;;;;;;;;;;;;;;5113226;28;19924;-71
2021/10/13 02:59:57;;;;;;;;;;;;;;;;;;5113272;28;20392;-71
2021/10/13 03:02:24;;;;;;;;;;;;;;;;;;5112999;28;19935;-71
2021/10/13 03:04:50;;;;;;;;;;;;;;;;;;5113085;28;19923;-72
2021/10/13 03:07:16;;;;;;;;;;;;;;;;;;5112841;28;19963;-72
2021/10/13 03:09:43;;;;;;;;;;;;;;;;;;5113445;28;19935;-71
2021/10/13 03:12:09;;;;;;;;;;;;;;;;;;5112747;28;20386;-72
2021/10/13 03:14:35;;;;;;;;;;;;;;;;;;5113322;28;19931;-71
2021/10/13 03:17:02;;;;;;;;;;;;;;;;;;5113066;28;19927;-71
2021/10/13 03:19:28;;;;;;;;;;;;;;;;;;5112967;28;20377;-71
2021/10/13 03:21:54;;;;;;;;;;;;;;;;;;5113258;28;19931;-71
2021/10/13 03:24:20;;;;;;;;;;;;;;;;;;5112995;28;19923;-71
2021/10/13 03:26:47;;;;;;;;;;;;;;;;;;5112952;28;19935;-71
2021/10/13 03:29:13;;;;;;;;;;;;;;;;;;5112921;28;19932;-71
2021/10/13 03:31:39;;;;;;;;;;;;;;;;;;5113004;28;19923;-71
2021/10/13 03:34:06;;;;;;;;;;;;;;;;;;5112598;28;20408;-71
2021/10/13 03:36:32;;;;;;;;;;;;;;;;;;5113022;28;19924;-71
2021/10/13 03:38:58;;;;;;;;;;;;;;;;;;5113896;28;19924;-72
2021/10/13 03:41:25;;;;;;;;;;;;;;;;;;5116977;28;19924;-72
2021/10/13 03:43:51;;;;;;;;;;;;;;;;;;5117062;28;19930;-72
2021/10/13 03:46:17;;;;;;;;;;;;;;;;;;5117106;28;19924;-71
2021/10/13 03:48:44;;;;;;;;;;;;;;;;;;5116823;28;20385;-71
2021/10/13 03:51:10;;;;;;;;;;;;;;;;;;5116599;28;19931;-71
2021/10/13 03:53:36;;;;;;;;;;;;;;;;;;5117218;28;19931;-71
2021/10/13 03:56:03;;;;;;;;;;;;;;;;;;5116483;28;20456;-71
2021/10/13 03:58:29;;;;;;;;;;;;;;;;;;5116590;28;19930;-71
2021/10/13 04:00:55;;;;;;;;;;;;;;;;;;5116914;28;19924;-78
2021/10/13 04:03:22;;;;;;;;;;;;;;;;;;5116478;28;19924;-76
2021/10/13 04:05:48;;;;;;;;;;;;;;;;;;5116905;28;19947;-77
2021/10/13 04:08:15;;;;;;;;;;;;;;;;;;5116636;28;20052;-74
2021/10/13 04:10:41;;;;;;;;;;;;;;;;;;5116519;28;20022;-70
2021/10/13 04:13:07;;;;;;;;;;;;;;;;;;5116227;28;20421;-72
2021/10/13 04:15:34;;;;;;;;;;;;;;;;;;5116495;28;19928;-73
2021/10/13 04:18:00;;;;;;;;;;;;;;;;;;5116385;28;19924;-73
2021/10/13 04:20:26;;;;;;;;;;;;;;;;;;5116803;28;20397;-74
2021/10/13 04:22:52;;;;;;;;;;;;;;;;;;5116382;28;19931;-74
2021/10/13 04:25:19;;;;;;;;;;;;;;;;;;5116281;28;19930;-72
2021/10/13 04:27:45;;;;;;;;;;;;;;;;;;5116058;28;19931;-72
2021/10/13 04:30:11;;;;;;;;;;;;;;;;;;5116210;28;19924;-72
2021/10/13 04:32:38;;;;;;;;;;;;;;;;;;5116264;28;20014;-73
2021/10/13 04:35:04;;;;;;;;;;;;;;;;;;5115782;28;19928;-72
2021/10/13 04:37:30;;;;;;;;;;;;;;;;;;5116200;28;19924;-72
2021/10/13 04:39:57;;;;;;;;;;;;;;;;;;5115878;28;20389;-72
2021/10/13 04:42:23;;;;;;;;;;;;;;;;;;5115885;28;19923;-72
2021/10/13 04:44:49;;;;;;;;;;;;;;;;;;5116077;28;19924;-74
2021/10/13 04:47:15;;;;;;;;;;;;;;;;;;5115525;28;19924;-74
2021/10/13 04:49:42;;;;;;;;;;;;;;;;;;5116097;28;19924;-74
2021/10/13 04:52:08;;;;;;;;;;;;;;;;;;5115702;28;20290;-74
2021/10/13 04:54:34;;;;;;;;;;;;;;;;;;5115655;28;19935;-72
2021/10/13 04:57:01;;;;;;;;;;;;;;;;;;5115409;28;19924;-69
2021/10/13 04:59:27;;;;;;;;;;;;;;;;;;5115573;28;20408;-70
2021/10/13 05:01:53;;;;;;;;;;;;;;;;;;5115220;28;19930;-71
2021/10/13 05:04:19;;;;;;;;;;;;;;;;;;5115305;28;19935;-70
2021/10/13 05:06:46;;;;;;;;;;;;;;;;;;5115417;28;19924;-70
2021/10/13 05:09:12;;;;;;;;;;;;;;;;;;5115414;28;19924;-71
2021/10/13 05:11:38;;;;;;;;;;;;;;;;;;5115358;28;20400;-71
2021/10/13 05:14:05;;;;;;;;;;;;;;;;;;5115391;28;19928;-70
2021/10/13 05:16:31;;;;;;;;;;;;;;;;;;5115229;28;20320;-71
2021/10/13 05:18:57;;;;;;;;;;;;;;;;;;5115158;28;19931;-70
2021/10/13 05:21:23;;;;;;;;;;;;;;;;;;5115157;28;19924;-71
2021/10/13 05:23:50;;;;;;;;;;;;;;;;;;5115142;28;19931;-70
2021/10/13 05:26:16;;;;;;;;;;;;;;;;;;5115182;28;19923;-71
2021/10/13 05:28:42;;;;;;;;;;;;;;;;;;5114865;28;19931;-70
2021/10/13 05:31:09;;;;;;;;;;;;;;;;;;5115150;28;19931;-70
2021/10/13 05:33:35;;;;;;;;;;;;;;;;;;5114793;28;20286;-71
2021/10/13 05:36:01;;;;;;;;;;;;;;;;;;5114795;28;19924;-70
2021/10/13 05:38:27;;;;;;;;;;;;;;;;;;5115118;28;19947;-71
2021/10/13 05:40:54;;;;;;;;;;;;;;;;;;5114772;28;19931;-71
2021/10/13 05:43:20;;;;;;;;;;;;;;;;;;5114406;28;19930;-71
2021/10/13 05:45:47;;;;;;;;;;;;;;;;;;5115245;28;19924;-71
2021/10/13 05:48:14;;;;;;;;;;;;;;;;;;5114710;28;19923;-71
2021/10/13 05:50:40;;;;;;;;;;;;;;;;;;5114830;28;19924;-71
2021/10/13 05:53:06;;;;;;;;;;;;;;;;;;5114331;28;20374;-71
2021/10/13 05:55:32;;;;;;;;;;;;;;;;;;5114778;28;19924;-71
2021/10/13 05:58:02;;;;;;;;;;;;;;;;;;5114400;28;20290;-72
2021/10/13 06:00:28;;;;;;;;;;;;;;;;;;5114497;28;19931;-71
2021/10/13 06:02:56;;;;;;;;;;;;;;;;;;5113682;28;19927;-71
2021/10/13 06:05:22;;;;;;;;;;;;;;;;;;5114209;28;19977;-71
2021/10/13 06:07:48;;;;;;;;;;;;;;;;;;5114262;28;19924;-71
2021/10/13 06:10:14;;;;;;;;;;;;;;;;;;5114295;28;19931;-71
2021/10/13 06:12:41;;;;;;;;;;;;;;;;;;5114083;28;20502;-71
2021/10/13 06:15:07;;;;;;;;;;;;;;;;;;5114064;28;19931;-71
2021/10/13 06:17:33;;;;;;;;;;;;;;;;;;5114405;28;20267;-71
2021/10/13 06:20:00;;;;;;;;;;;;;;;;;;5113652;28;19931;-71
2021/10/13 06:22:26;;;;;;;;;;;;;;;;;;5114248;28;19935;-71
2021/10/13 06:24:52;;;;;;;;;;;;;;;;;;5113881;28;19924;-71
2021/10/13 06:27:18;;;;;;;;;;;;;;;;;;5113919;28;19931;-71
2021/10/13 06:29:45;;;;;;;;;;;;;;;;;;5113915;28;19924;-71
2021/10/13 06:32:11;;;;;;;;;;;;;;;;;;5113716;28;19924;-71
2021/10/13 06:34:37;;;;;;;;;;;;;;;;;;5113924;28;19924;-70
2021/10/13 06:37:04;;;;;;;;;;;;;;;;;;5113441;28;19930;-71
2021/10/13 06:39:30;;;;;;;;;;;;;;;;;;5113828;28;19924;-71
2021/10/13 06:41:56;;;;;;;;;;;;;;;;;;5113787;28;19938;-70
2021/10/13 06:44:23;;;;;;;;;;;;;;;;;;5113287;28;20377;-71
2021/10/13 06:46:50;;;;;;;;;;;;;;;;;;5113367;28;19924;-71
2021/10/13 06:49:16;;;;;;;;;;;;;;;;;;5113444;28;19928;-71
2021/10/13 06:51:43;;;;;;;;;;;;;;;;;;5113334;28;19924;-71
2021/10/13 06:54:09;;;;;;;;;;;;;;;;;;5113182;28;20418;-70
2021/10/13 06:56:35;;;;;;;;;;;;;;;;;;5113734;28;19924;-71
2021/10/13 06:59:02;;;;;;;;;;;;;;;;;;5113310;28;19931;-71
2021/10/13 07:01:28;;;;;;;;;;;;;;;;;;5113177;28;20382;-71
2021/10/13 07:03:54;;;;;;;;;;;;;;;;;;5113233;28;19923;-71
2021/10/13 07:06:21;;;;;;;;;;;;;;;;;;5113262;28;19946;-71
2021/10/13 07:08:47;;;;;;;;;;;;;;;;;;5113113;28;19934;-71
2021/10/13 07:11:13;;;;;;;;;;;;;;;;;;5112925;28;19924;-70
2021/10/13 07:13:40;;;;;;;;;;;;;;;;;;5112482;28;20266;-71
2021/10/13 07:16:06;;;;;;;;;;;;;;;;;;5112853;28;19924;-71
2021/10/13 07:18:32;;;;;;;;;;;;;;;;;;5113093;28;20299;-71
2021/10/13 07:20:58;;;;;;;;;;;;;;;;;;5112930;28;19924;-70
2021/10/13 07:23:25;;;;;;;;;;;;;;;;;;5113160;28;20175;-71
2021/10/13 07:25:51;;;;;;;;;;;;;;;;;;5113043;28;20309;-70
2021/10/13 07:28:17;;;;;;;;;;;;;;;;;;5112669;28;19934;-71
2021/10/13 07:30:44;;;;;;;;;;;;;;;;;;5113120;28;19924;-70
2021/10/13 07:33:10;;;;;;;;;;;;;;;;;;5112967;28;19946;-70
2021/10/13 07:35:36;;;;;;;;;;;;;;;;;;5112800;28;19924;-70
2021/10/13 07:38:03;;;;;;;;;;;;;;;;;;5112647;28;19924;-71
2021/10/13 07:40:31;;;;;;;;;;;;;;;;;;5112999;28;19930;-71
2021/10/13 07:42:57;;;;;;;;;;;;;;;;;;5113005;28;19928;-71
2021/10/13 07:45:23;;;;;;;;;;;;;;;;;;5112609;28;19924;-70
2021/10/13 07:47:49;;;;;;;;;;;;;;;;;;5112891;28;19924;-71
2021/10/13 07:50:16;;;;;;;;;;;;;;;;;;5112807;28;19923;-71
2021/10/13 07:52:42;;;;;;;;;;;;;;;;;;5112603;28;19931;-71
2021/10/13 07:55:08;;;;;;;;;;;;;;;;;;5112476;28;19928;-71
2021/10/13 07:57:35;;;;;;;;;;;;;;;;;;5112571;28;19924;-71
2021/10/13 08:00:01;;;;;;;;;;;;;;;;;;5112265;28;20411;-71
2021/10/13 08:02:27;;;;;;;;;;;;;;;;;;5112835;28;19939;-71
2021/10/13 08:04:54;;;;;;;;;;;;;;;;;;5112855;28;19946;-71
2021/10/13 08:07:20;;;;;;;;;;;;;;;;;;5112202;28;19935;-71
2021/10/13 08:09:46;;;;;;;;;;;;;;;;;;5112791;28;19931;-70
2021/10/13 08:12:12;;;;;;;;;;;;;;;;;;5112821;28;19946;-70
2021/10/13 08:14:39;;;;;;;;;;;;;;;;;;5112429;28;19927;-70
2021/10/13 08:17:07;;;;;;;;;;;;;;;;;;5112398;28;19924;-71
2021/10/13 08:19:33;;;;;;;;;;;;;;;;;;5112326;28;19924;-71
2021/10/13 08:21:59;;;;;;;;;;;;;;;;;;5112664;28;19928;-70
2021/10/13 08:24:26;;;;;;;;;;;;;;;;;;5112406;28;20382;-71
2021/10/13 08:26:52;;;;;;;;;;;;;;;;;;5116376;28;19924;-71
2021/10/13 08:29:18;;;;;;;;;;;;;;;;;;5116219;28;20388;-71
2021/10/13 08:31:45;;;;;;;;;;;;;;;;;;5116108;28;19923;-71
2021/10/13 08:34:11;;;;;;;;;;;;;;;;;;5116239;28;19950;-70
2021/10/13 08:36:37;;;;;;;;;;;;;;;;;;5116377;28;19967;-70
2021/10/13 08:39:03;;;;;;;;;;;;;;;;;;5115678;28;20290;-70
2021/10/13 08:41:30;;;;;;;;;;;;;;;;;;5115804;28;19924;-70
2021/10/13 08:43:56;;;;;;;;;;;;;;;;;;5116256;28;19930;-70
2021/10/13 08:46:22;;;;;;;;;;;;;;;;;;5115656;28;19931;-71
2021/10/13 08:48:49;;;;;;;;;;;;;;;;;;5115727;28;19934;-70
2021/10/13 08:51:15;;;;;;;;;;;;;;;;;;5115863;28;19950;-70
2021/10/13 08:53:41;;;;;;;;;;;;;;;;;;5115708;28;20378;-70
2021/10/13 08:56:08;;;;;;;;;;;;;;;;;;5115460;28;19930;-70
2021/10/13 08:58:34;;;;;;;;;;;;;;;;;;5115505;28;19931;-70
2021/10/13 09:01:00;;;;;;;;;;;;;;;;;;5115606;28;19924;-70
2021/10/13 09:03:27;;;;;;;;;;;;;;;;;;5115530;28;19923;-70
2021/10/13 09:05:53;;;;;;;;;;;;;;;;;;5115675;28;19924;-70
2021/10/13 09:08:19;;;;;;;;;;;;;;;;;;5115100;28;19931;-70
2021/10/13 09:10:46;;;;;;;;;;;;;;;;;;5115687;28;19931;-70
2021/10/13 09:13:13;;;;;;;;;;;;;;;;;;5115150;28;20297;-70
2021/10/13 09:15:40;;;;;;;;;;;;;;;;;;5115615;28;19986;-70
2021/10/13 09:18:07;;;;;;;;;;;;;;;;;;5114888;28;19955;-70
2021/10/13 09:20:33;;;;;;;;;;;;;;;;;;5115315;28;19924;-70
2021/10/13 09:22:59;;;;;;;;;;;;;;;;;;5115105;28;19934;-70
2021/10/13 09:25:26;;;;;;;;;;;;;;;;;;5115384;28;19930;-70
2021/10/13 09:27:52;;;;;;;;;;;;;;;;;;5115630;28;19924;-70
2021/10/13 09:30:18;;;;;;;;;;;;;;;;;;5114660;28;20379;-70
2021/10/13 09:32:44;;;;;;;;;;;;;;;;;;5114966;28;19930;-71
2021/10/13 09:35:11;;;;;;;;;;;;;;;;;;5115041;28;19924;-70
2021/10/13 09:37:37;;;;;;;;;;;;;;;;;;5113964;28;20401;-70
2021/10/13 09:40:04;;;;;;;;;;;;;;;;;;5115261;28;19923;-71
2021/10/13 09:42:31;;;;;;;;;;;;;;;;;;5115090;28;19923;-71
2021/10/13 09:44:57;;;;;;;;;;;;;;;;;;5114795;28;19931;-71
2021/10/13 09:47:23;;;;;;;;;;;;;;;;;;5114716;28;19927;-71
2021/10/13 09:49:49;;;;;;;;;;;;;;;;;;5114769;28;19938;-71
2021/10/13 09:52:16;;;;;;;;;;;;;;;;;;5114207;28;19923;-71
2021/10/13 09:54:42;;;;;;;;;;;;;;;;;;5114855;28;19930;-71
2021/10/13 09:57:08;;;;;;;;;;;;;;;;;;5114096;28;20392;-71
2021/10/13 09:59:35;;;;;;;;;;;;;;;;;;5114443;28;19924;-71
2021/10/13 10:02:01;;;;;;;;;;;;;;;;;;5114388;28;19924;-70
2021/10/13 10:04:27;;;;;;;;;;;;;;;;;;5114371;28;20408;-71
2021/10/13 10:06:54;;;;;;;;;;;;;;;;;;5114434;28;19923;-71
2021/10/13 10:09:20;;;;;;;;;;;;;;;;;;5114331;28;19936;-71
2021/10/13 10:11:47;;;;;;;;;;;;;;;;;;5114534;28;19923;-71
2021/10/13 10:14:13;;;;;;;;;;;;;;;;;;5113946;28;20022;-71
2021/10/13 10:16:39;;;;;;;;;;;;;;;;;;5114395;28;20064;-71
2021/10/13 10:19:05;;;;;;;;;;;;;;;;;;5114140;28;19923;-70
2021/10/13 10:21:32;;;;;;;;;;;;;;;;;;5113957;28;19923;-70
2021/10/13 10:23:58;;;;;;;;;;;;;;;;;;5114315;28;19923;-70
2021/10/13 10:26:24;;;;;;;;;;;;;;;;;;5114388;28;19923;-70
2021/10/13 10:28:51;;;;;;;;;;;;;;;;;;5113734;28;19924;-70
2021/10/13 10:31:17;;;;;;;;;;;;;;;;;;5113824;28;20071;-71
2021/10/13 10:33:43;;;;;;;;;;;;;;;;;;5114092;28;19930;-70
2021/10/13 10:36:10;;;;;;;;;;;;;;;;;;5113474;28;19928;-70
2021/10/13 10:38:36;;;;;;;;;;;;;;;;;;5113678;28;19928;-70
2021/10/13 10:41:02;;;;;;;;;;;;;;;;;;5113592;28;19930;-70
2021/10/13 10:43:33;;;;;;;;;;;;;;;;;;5113861;28;20373;-70
2021/10/13 10:46:00;;;;;;;;;;;;;;;;;;5113531;28;19934;-70
2021/10/13 10:48:26;;;;;;;;;;;;;;;;;;5113357;28;20293;-70
2021/10/13 10:50:52;;;;;;;;;;;;;;;;;;5113435;28;19939;-71
2021/10/13 10:53:20;;;;;;;;;;;;;;;;;;5113492;28;20373;-70
2021/10/13 10:55:46;;;;;;;;;;;;;;;;;;5113388;28;20443;-71
2021/10/13 10:58:12;;;;;;;;;;;;;;;;;;5112999;28;19924;-71
2021/10/13 11:00:38;;;;;;;;;;;;;;;;;;5113536;28;19923;-71
2021/10/13 11:03:05;;;;;;;;;;;;;;;;;;5112926;28;19930;-71
2021/10/13 11:05:31;;;;;;;;;;;;;;;;;;5113615;28;19954;-71
2021/10/13 11:07:57;;;;;;;;;;;;;;;;;;5113105;28;20386;-71
2021/10/13 11:10:24;;;;;;;;;;;;;;;;;;5113236;28;19924;-70
2021/10/13 11:12:50;;;;;;;;;;;;;;;;;;5113449;28;20301;-70
2021/10/13 11:15:16;;;;;;;;;;;;;;;;;;5112766;28;19931;-70
2021/10/13 11:17:42;;;;;;;;;;;;;;;;;;5113244;28;19924;-71
2021/10/13 11:20:09;;;;;;;;;;;;;;;;;;5112790;28;20394;-71
2021/10/13 11:22:35;;;;;;;;;;;;;;;;;;5113140;28;19924;-70
2021/10/13 11:25:01;;;;;;;;;;;;;;;;;;5112975;28;20011;-71
2021/10/13 11:27:28;;;;;;;;;;;;;;;;;;5112823;28;20306;-71
2021/10/13 11:29:54;;;;;;;;;;;;;;;;;;5112962;28;19924;-71
2021/10/13 11:32:23;;;;;;;;;;;;;;;;;;5112674;28;19932;-71
2021/10/13 11:34:49;;;;;;;;;;;;;;;;;;5113024;28;19969;-69
2021/10/13 11:37:15;;;;;;;;;;;;;;;;;;5112487;28;19924;-69
2021/10/13 11:39:42;;;;;;;;;;;;;;;;;;5112655;28;19936;-70
2021/10/13 11:42:08;;;;;;;;;;;;;;;;;;5112710;28;19924;-71
2021/10/13 11:44:34;;;;;;;;;;;;;;;;;;5112600;28;19923;-70
2021/10/13 11:47:01;;;;;;;;;;;;;;;;;;5112823;28;19928;-70
2021/10/13 11:49:27;;;;;;;;;;;;;;;;;;5113955;28;19923;-69
2021/10/13 11:51:53;;;;;;;;;;;;;;;;;;5113891;28;20018;-70
2021/10/13 11:54:20;;;;;;;;;;;;;;;;;;5112230;28;19943;-70
2021/10/13 11:56:46;;;;;;;;;;;;;;;;;;5112967;28;19931;-70
2021/10/13 11:59:12;;;;;;;;;;;;;;;;;;5112407;28;20286;-71
2021/10/13 12:01:39;;;;;;;;;;;;;;;;;;5116236;28;19924;-70
2021/10/13 12:04:05;;;;;;;;;;;;;;;;;;5116270;28;19924;-70
2021/10/13 12:06:31;;;;;;;;;;;;;;;;;;5117023;28;19935;-71
2021/10/13 12:08:59;;;;;;;;;;;;;;;;;;5116924;28;19924;-71
2021/10/13 12:11:26;;;;;;;;;;;;;;;;;;5116537;28;20014;-71
2021/10/13 12:13:52;;;;;;;;;;;;;;;;;;5116753;28;19923;-71
2021/10/13 12:16:19;;;;;;;;;;;;;;;;;;5116268;28;20378;-71
2021/10/13 12:18:46;;;;;;;;;;;;;;;;;;5116312;28;19925;-71
2021/10/13 12:21:14;;;;;;;;;;;;;;;;;;5116120;28;19978;-71
2021/10/13 12:23:41;;;;;;;;;;;;;;;;;;5116635;28;19931;-71
2021/10/13 12:26:07;;;;;;;;;;;;;;;;;;5116127;28;20305;-71
2021/10/13 12:28:33;;;;;;;;;;;;;;;;;;5116215;28;19930;-71
2021/10/13 12:31:00;;;;;;;;;;;;;;;;;;5116168;28;19928;-71
2021/10/13 12:33:26;;;;;;;;;;;;;;;;;;5116073;28;19935;-70
2021/10/13 12:35:52;;;;;;;;;;;;;;;;;;5116405;28;19924;-69
2021/10/13 12:38:19;;;;;;;;;;;;;;;;;;5115835;28;20409;-69
2021/10/13 12:40:45;;;;;;;;;;;;;;;;;;5116090;28;19924;-70
2021/10/13 12:43:11;;;;;;;;;;;;;;;;;;5116007;28;19950;-69
2021/10/13 12:45:37;;;;;;;;;;;;;;;;;;5115814;28;19923;-69
2021/10/13 12:48:04;;;;;;;;;;;;;;;;;;5115734;28;19923;-70
2021/10/13 12:50:30;;;;;;;;;;;;;;;;;;5115967;28;19930;-69
2021/10/13 12:52:56;;;;;;;;;;;;;;;;;;5115768;28;19924;-69
2021/10/13 12:55:23;;;;;;;;;;;;;;;;;;5115451;28;19923;-70
2021/10/13 12:57:50;;;;;;;;;;;;;;;;;;5115572;28;19923;-69
2021/10/13 13:00:16;;;;;;;;;;;;;;;;;;5115964;27;19969;-70
2021/10/13 13:02:42;;;;;;;;;;;;;;;;;;5115220;28;20302;-69
2021/10/13 13:05:08;;;;;;;;;;;;;;;;;;5115260;28;19924;-70
2021/10/13 13:07:35;;;;;;;;;;;;;;;;;;5115743;28;19931;-70
2021/10/13 13:10:01;;;;;;;;;;;;;;;;;;5115149;28;20386;-70
2021/10/13 13:12:27;;;;;;;;;;;;;;;;;;5113907;28;19923;-70
2021/10/13 13:14:54;;;;;;;;;;;;;;;;;;5115476;28;19931;-70
2021/10/13 13:17:20;;;;;;;;;;;;;;;;;;5114986;28;20412;-70
2021/10/13 13:19:46;;;;;;;;;;;;;;;;;;5115196;28;19924;-70
2021/10/13 13:22:12;;;;;;;;;;;;;;;;;;5115019;28;19924;-70
2021/10/13 13:24:39;;;;;;;;;;;;;;;;;;5115205;28;20243;-72
2021/10/13 13:27:05;;;;;;;;;;;;;;;;;;5114941;28;19934;-70
2021/10/13 13:29:31;;;;;;;;;;;;;;;;;;5115636;28;19928;-70
2021/10/13 13:31:58;;;;;;;;;;;;;;;;;;5115044;28;19923;-70
2021/10/13 13:34:24;;;;;;;;;;;;;;;;;;5114819;28;19931;-70
2021/10/13 13:36:51;;;;;;;;;;;;;;;;;;5114888;28;20302;-70
2021/10/13 13:39:17;;;;;;;;;;;;;;;;;;5114612;28;20018;-70
2021/10/13 13:41:44;;;;;;;;;;;;;;;;;;5114948;28;19924;-70
2021/10/13 13:44:10;;;;;;;;;;;;;;;;;;5114586;28;20378;-70
2021/10/13 13:46:36;;;;;;;;;;;;;;;;;;5114969;28;19938;-70
2021/10/13 13:49:03;;;;;;;;;;;;;;;;;;5114738;28;19930;-70
2021/10/13 13:51:29;;;;;;;;;;;;;;;;;;5114655;28;19931;-70
2021/10/13 13:53:55;;;;;;;;;;;;;;;;;;5114771;28;19931;-70
2021/10/13 13:56:21;;;;;;;;;;;;;;;;;;5114229;28;20313;-71
2021/10/13 13:58:48;;;;;;;;;;;;;;;;;;5114344;28;19931;-70
2021/10/13 14:01:14;;;;;;;;;;;;;;;;;;5114388;28;20024;-70
2021/10/13 14:03:40;;;;;;;;;;;;;;;;;;5114340;28;19924;-71
2021/10/13 14:06:07;;;;;;;;;;;;;;;;;;5114251;28;19924;-70
2021/10/13 14:08:33;;;;;;;;;;;;;;;;;;5114219;28;20278;-70
2021/10/13 14:10:59;;;;;;;;;;;;;;;;;;5114145;28;19924;-71
2021/10/13 14:13:25;;;;;;;;;;;;;;;;;;5114486;28;19924;-71
2021/10/13 14:15:52;;;;;;;;;;;;;;;;;;5114127;28;20294;-70
2021/10/13 14:18:18;;;;;;;;;;;;;;;;;;5114244;28;19924;-70
2021/10/13 14:20:45;;;;;;;;;;;;;;;;;;5114016;28;20427;-70
2021/10/13 14:23:11;;;;;;;;;;;;;;;;;;5113452;28;19931;-69
2021/10/13 14:25:37;;;;;;;;;;;;;;;;;;5114278;28;19943;-70
2021/10/13 14:28:04;;;;;;;;;;;;;;;;;;5113945;28;19947;-70
2021/10/13 14:30:30;;;;;;;;;;;;;;;;;;5113827;28;19924;-70
2021/10/13 14:32:56;;;;;;;;;;;;;;;;;;5113999;28;19931;-70
2021/10/13 14:35:24;;;;;;;;;;;;;;;;;;5113903;28;19935;-70
2021/10/13 14:37:50;;;;;;;;;;;;;;;;;;5113675;28;20386;-70
2021/10/13 14:40:19;;;;;;;;;;;;;;;;;;5113409;28;19924;-70
2021/10/13 14:42:45;;;;;;;;;;;;;;;;;;5113710;28;19928;-70
2021/10/13 14:45:13;;;;;;;;;;;;;;;;;;5113618;28;20018;-70
2021/10/13 14:47:40;;;;;;;;;;;;;;;;;;5113363;28;20370;-70
2021/10/13 14:50:06;;;;;;;;;;;;;;;;;;5113232;28;19923;-70
2021/10/13 14:52:32;;;;;;;;;;;;;;;;;;5113738;28;19943;-70
2021/10/13 14:54:58;;;;;;;;;;;;;;;;;;5113218;28;20381;-70
2021/10/13 14:57:25;;;;;;;;;;;;;;;;;;5113252;28;20023;-70
2021/10/13 14:59:51;;;;;;;;;;;;;;;;;;5113623;28;19930;-71
2021/10/13 15:02:19;;;;;;;;;;;;;;;;;;5111986;28;20481;-71
2021/10/13 15:04:46;;;;;;;;;;;;;;;;;;5113525;28;19930;-70
2021/10/13 15:07:12;;;;;;;;;;;;;;;;;;5112948;28;20582;-70
2021/10/13 15:09:39;;;;;;;;;;;;;;;;;;5113180;28;19930;-70
2021/10/13 15:12:05;;;;;;;;;;;;;;;;;;5112807;28;19923;-68
2021/10/13 15:14:33;;;;;;;;;;;;;;;;;;5113316;28;19923;-71
2021/10/13 15:16:59;;;;;;;;;;;;;;;;;;5113297;28;19923;-72
2021/10/13 15:19:25;;;;;;;;;;;;;;;;;;5113252;28;19924;-71
2021/10/13 15:21:53;;;;;;;;;;;;;;;;;;5112856;28;19930;-70
2021/10/13 15:24:19;;;;;;;;;;;;;;;;;;5112831;28;19977;-71
2021/10/13 15:26:45;;;;;;;;;;;;;;;;;;5113170;28;19924;-71
2021/10/13 15:29:12;;;;;;;;;;;;;;;;;;5112674;28;20397;-71
2021/10/13 15:31:38;;;;;;;;;;;;;;;;;;5112768;28;19930;-69
2021/10/13 15:34:04;;;;;;;;;;;;;;;;;;5111009;28;19931;-69
2021/10/13 15:36:31;;;;;;;;;;;;;;;;;;5112282;28;20409;-69
2021/10/13 15:38:57;;;;;;;;;;;;;;;;;;5112976;28;19924;-69
2021/10/13 15:41:23;;;;;;;;;;;;;;;;;;5112793;28;20429;-71
2021/10/13 15:43:49;;;;;;;;;;;;;;;;;;5112680;28;19924;-75
2021/10/13 15:46:16;;;;;;;;;;;;;;;;;;5112706;28;19930;-72
2021/10/13 15:48:42;;;;;;;;;;;;;;;;;;5112657;28;20401;-72
2021/10/13 15:51:08;;;;;;;;;;;;;;;;;;5112485;28;19931;-71
2021/10/13 15:53:35;;;;;;;;;;;;;;;;;;5112625;28;19924;-71
2021/10/13 15:56:01;;;;;;;;;;;;;;;;;;5112409;28;20366;-71
2021/10/13 15:58:27;;;;;;;;;;;;;;;;;;5112417;28;20048;-71
2021/10/13 16:00:54;;;;;;;;;;;;;;;;;;5112782;28;19934;-71
2021/10/13 16:03:20;;;;;;;;;;;;;;;;;;5112269;28;19941;-72
2021/10/13 16:05:47;;;;;;;;;;;;;;;;;;5112802;28;19930;-72
2021/10/13 16:08:13;;;;;;;;;;;;;;;;;;5112515;28;19927;-72
2021/10/13 16:10:39;;;;;;;;;;;;;;;;;;5112539;28;19949;-71
2021/10/13 16:13:06;;;;;;;;;;;;;;;;;;5112570;28;19923;-71
2021/10/13 16:15:32;;;;;;;;;;;;;;;;;;5112678;28;19930;-71
2021/10/13 16:17:58;;;;;;;;;;;;;;;;;;5112759;28;19924;-71
2021/10/13 16:20:25;;;;;;;;;;;;;;;;;;5112478;28;19931;-71
2021/10/13 16:22:51;;;;;;;;;;;;;;;;;;5112644;28;19924;-71
2021/10/13 16:25:17;;;;;;;;;;;;;;;;;;5112492;28;19923;-71
2021/10/13 16:27:44;;;;;;;;;;;;;;;;;;5112260;28;19927;-71
2021/10/13 16:30:10;;;;;;;;;;;;;;;;;;5111967;28;19924;-71
2021/10/13 16:32:36;;;;;;;;;;;;;;;;;;5112575;28;19924;-71
2021/10/13 16:35:02;;;;;;;;;;;;;;;;;;5112012;28;19923;-69
2021/10/13 16:37:29;;;;;;;;;;;;;;;;;;5110920;28;19931;-70
2021/10/13 16:39:55;;;;;;;;;;;;;;;;;;5111860;28;20375;-70